sensor_id;sensor_type;location;lat;lon;timestamp;P1;durP1;ratioP1;P2;durP2;ratioP2
18677;SDS011;9469;51.114;13.914;2022-11-18T00:03:07;31.13;;;19.43;;
18677;SDS011;9469;51.114;13.914;2022-11-18T00:08:12;35.90;;;21.20;;
18677;SDS011;9469;51.114;13.914;2022-11-18T00:13:19;29.57;;;19.70;;
18677;SDS011;9469;51.114;13.914;2022-11-18T00:18:37;35.23;;;20.90;;
18677;SDS011;9469;51.114;13.914;2022-11-18T00:23:43;31.87;;;19.60;;
18677;SDS011;9469;51.114;13.914;2022-11-18T00:28:50;30.00;;;21.03;;
18677;SDS011;9469;51.114;13.914;2022-11-18T00:33:55;33.90;;;19.97;;
18677;SDS011;9469;51.114;13.914;2022-11-18T00:39:01;34.90;;;21.00;;
18677;SDS011;9469;51.114;13.914;2022-11-18T00:44:10;37.23;;;21.23;;
18677;SDS011;9469;51.114;13.914;2022-11-18T00:49:16;29.80;;;19.97;;
18677;SDS011;9469;51.114;13.914;2022-11-18T00:54:21;30.03;;;20.10;;
18677;SDS011;9469;51.114;13.914;2022-11-18T00:59:29;32.57;;;20.40;;
18677;SDS011;9469;51.114;13.914;2022-11-18T01:04:34;33.27;;;20.60;;
18677;SDS011;9469;51.114;13.914;2022-11-18T01:09:39;30.80;;;19.20;;
18677;SDS011;9469;51.114;13.914;2022-11-18T01:14:47;32.77;;;20.17;;
18677;SDS011;9469;51.114;13.914;2022-11-18T01:19:52;30.37;;;19.73;;
18677;SDS011;9469;51.114;13.914;2022-11-18T01:24:57;33.73;;;19.60;;
18677;SDS011;9469;51.114;13.914;2022-11-18T01:30:06;30.27;;;18.50;;
18677;SDS011;9469;51.114;13.914;2022-11-18T01:35:11;32.67;;;21.17;;
18677;SDS011;9469;51.114;13.914;2022-11-18T01:40:18;33.80;;;20.87;;
18677;SDS011;9469;51.114;13.914;2022-11-18T01:45:29;31.47;;;19.50;;
18677;SDS011;9469;51.114;13.914;2022-11-18T01:50:39;29.83;;;18.37;;
18677;SDS011;9469;51.114;13.914;2022-11-18T01:55:51;27.73;;;18.10;;
18677;SDS011;9469;51.114;13.914;2022-11-18T02:01:00;26.47;;;18.07;;
18677;SDS011;9469;51.114;13.914;2022-11-18T02:06:06;28.33;;;18.23;;
18677;SDS011;9469;51.114;13.914;2022-11-18T02:11:14;28.73;;;18.13;;
18677;SDS011;9469;51.114;13.914;2022-11-18T02:16:37;30.30;;;18.60;;
18677;SDS011;9469;51.114;13.914;2022-11-18T02:21:54;29.10;;;19.93;;
18677;SDS011;9469;51.114;13.914;2022-11-18T02:32:47;34.07;;;20.70;;
18677;SDS011;9469;51.114;13.914;2022-11-18T02:38:00;31.00;;;19.73;;
18677;SDS011;9469;51.114;13.914;2022-11-18T02:43:12;33.27;;;21.67;;
18677;SDS011;9469;51.114;13.914;2022-11-18T02:48:24;33.83;;;20.37;;
18677;SDS011;9469;51.114;13.914;2022-11-18T02:53:35;32.57;;;21.20;;
18677;SDS011;9469;51.114;13.914;2022-11-18T02:58:44;36.07;;;22.13;;
18677;SDS011;9469;51.114;13.914;2022-11-18T03:03:52;30.13;;;20.97;;
18677;SDS011;9469;51.114;13.914;2022-11-18T03:09:01;31.47;;;19.97;;
18677;SDS011;9469;51.114;13.914;2022-11-18T03:14:16;28.73;;;20.53;;
18677;SDS011;9469;51.114;13.914;2022-11-18T03:19:35;35.70;;;21.00;;
18677;SDS011;9469;51.114;13.914;2022-11-18T03:24:52;32.53;;;19.87;;
18677;SDS011;9469;51.114;13.914;2022-11-18T03:30:04;28.37;;;19.60;;
18677;SDS011;9469;51.114;13.914;2022-11-18T03:35:15;29.03;;;20.77;;
18677;SDS011;9469;51.114;13.914;2022-11-18T03:40:25;31.90;;;19.33;;
18677;SDS011;9469;51.114;13.914;2022-11-18T03:45:35;29.53;;;19.60;;
18677;SDS011;9469;51.114;13.914;2022-11-18T03:50:49;27.93;;;18.00;;
18677;SDS011;9469;51.114;13.914;2022-11-18T03:56:02;29.47;;;18.57;;
18677;SDS011;9469;51.114;13.914;2022-11-18T04:01:19;28.17;;;18.90;;
18677;SDS011;9469;51.114;13.914;2022-11-18T04:06:33;26.90;;;19.87;;
18677;SDS011;9469;51.114;13.914;2022-11-18T04:11:42;25.43;;;17.70;;
18677;SDS011;9469;51.114;13.914;2022-11-18T04:17:07;26.87;;;17.30;;
18677;SDS011;9469;51.114;13.914;2022-11-18T04:22:16;25.63;;;18.50;;
18677;SDS011;9469;51.114;13.914;2022-11-18T04:27:25;24.50;;;17.90;;
18677;SDS011;9469;51.114;13.914;2022-11-18T04:32:30;26.70;;;18.77;;
18677;SDS011;9469;51.114;13.914;2022-11-18T04:37:38;26.97;;;18.13;;
18677;SDS011;9469;51.114;13.914;2022-11-18T04:42:43;30.43;;;19.77;;
18677;SDS011;9469;51.114;13.914;2022-11-18T04:47:48;37.07;;;21.63;;
18677;SDS011;9469;51.114;13.914;2022-11-18T04:52:56;30.00;;;20.30;;
18677;SDS011;9469;51.114;13.914;2022-11-18T04:58:01;29.33;;;19.20;;
18677;SDS011;9469;51.114;13.914;2022-11-18T05:03:06;27.27;;;18.47;;
18677;SDS011;9469;51.114;13.914;2022-11-18T05:08:13;31.70;;;19.77;;
18677;SDS011;9469;51.114;13.914;2022-11-18T05:13:19;30.70;;;21.43;;
18677;SDS011;9469;51.114;13.914;2022-11-18T05:18:24;28.50;;;18.53;;
18677;SDS011;9469;51.114;13.914;2022-11-18T05:23:34;26.80;;;17.00;;
18677;SDS011;9469;51.114;13.914;2022-11-18T05:28:40;29.53;;;17.47;;
18677;SDS011;9469;51.114;13.914;2022-11-18T05:33:46;29.47;;;17.77;;
18677;SDS011;9469;51.114;13.914;2022-11-18T05:38:53;26.10;;;16.53;;
18677;SDS011;9469;51.114;13.914;2022-11-18T05:44:01;24.17;;;16.37;;
18677;SDS011;9469;51.114;13.914;2022-11-18T05:49:09;27.87;;;16.37;;
18677;SDS011;9469;51.114;13.914;2022-11-18T05:54:17;26.83;;;16.33;;
18677;SDS011;9469;51.114;13.914;2022-11-18T05:59:24;29.07;;;18.80;;
18677;SDS011;9469;51.114;13.914;2022-11-18T06:04:31;29.77;;;18.77;;
18677;SDS011;9469;51.114;13.914;2022-11-18T06:09:44;31.07;;;19.73;;
18677;SDS011;9469;51.114;13.914;2022-11-18T06:14:54;24.87;;;17.03;;
18677;SDS011;9469;51.114;13.914;2022-11-18T06:20:07;27.57;;;18.43;;
18677;SDS011;9469;51.114;13.914;2022-11-18T06:25:16;24.13;;;16.83;;
18677;SDS011;9469;51.114;13.914;2022-11-18T06:30:24;27.03;;;18.43;;
18677;SDS011;9469;51.114;13.914;2022-11-18T06:35:29;30.60;;;18.53;;
18677;SDS011;9469;51.114;13.914;2022-11-18T06:40:37;30.93;;;19.17;;
18677;SDS011;9469;51.114;13.914;2022-11-18T06:45:58;23.83;;;16.57;;
18677;SDS011;9469;51.114;13.914;2022-11-18T06:51:17;27.57;;;16.27;;
18677;SDS011;9469;51.114;13.914;2022-11-18T06:56:25;24.70;;;16.43;;
18677;SDS011;9469;51.114;13.914;2022-11-18T07:01:31;25.40;;;16.87;;
18677;SDS011;9469;51.114;13.914;2022-11-18T07:06:41;29.57;;;17.70;;
18677;SDS011;9469;51.114;13.914;2022-11-18T07:11:52;25.20;;;16.30;;
18677;SDS011;9469;51.114;13.914;2022-11-18T07:16:59;25.47;;;17.17;;
18677;SDS011;9469;51.114;13.914;2022-11-18T07:22:06;23.90;;;16.70;;
18677;SDS011;9469;51.114;13.914;2022-11-18T07:27:14;26.33;;;16.77;;
18677;SDS011;9469;51.114;13.914;2022-11-18T07:32:19;23.77;;;15.13;;
18677;SDS011;9469;51.114;13.914;2022-11-18T07:37:25;21.43;;;13.70;;
18677;SDS011;9469;51.114;13.914;2022-11-18T07:42:34;23.87;;;14.63;;
18677;SDS011;9469;51.114;13.914;2022-11-18T07:47:56;21.30;;;14.13;;
18677;SDS011;9469;51.114;13.914;2022-11-18T07:53:01;27.63;;;15.63;;
18677;SDS011;9469;51.114;13.914;2022-11-18T07:58:09;30.63;;;17.63;;
18677;SDS011;9469;51.114;13.914;2022-11-18T08:03:16;28.70;;;17.63;;
18677;SDS011;9469;51.114;13.914;2022-11-18T08:08:23;30.17;;;19.20;;
18677;SDS011;9469;51.114;13.914;2022-11-18T08:13:31;31.43;;;20.23;;
18677;SDS011;9469;51.114;13.914;2022-11-18T08:18:39;29.23;;;19.00;;
18677;SDS011;9469;51.114;13.914;2022-11-18T08:23:48;37.70;;;19.67;;
18677;SDS011;9469;51.114;13.914;2022-11-18T08:28:58;34.60;;;20.13;;
18677;SDS011;9469;51.114;13.914;2022-11-18T08:34:07;33.77;;;19.80;;
18677;SDS011;9469;51.114;13.914;2022-11-18T08:39:15;35.23;;;20.90;;
18677;SDS011;9469;51.114;13.914;2022-11-18T08:44:23;29.53;;;18.87;;
18677;SDS011;9469;51.114;13.914;2022-11-18T08:49:34;30.70;;;17.37;;
18677;SDS011;9469;51.114;13.914;2022-11-18T08:54:39;31.23;;;17.30;;
18677;SDS011;9469;51.114;13.914;2022-11-18T08:59:46;31.07;;;19.13;;
18677;SDS011;9469;51.114;13.914;2022-11-18T09:04:52;31.90;;;18.73;;
18677;SDS011;9469;51.114;13.914;2022-11-18T09:09:58;34.63;;;20.27;;
18677;SDS011;9469;51.114;13.914;2022-11-18T09:15:10;36.23;;;20.80;;
18677;SDS011;9469;51.114;13.914;2022-11-18T09:20:18;37.60;;;20.90;;
18677;SDS011;9469;51.114;13.914;2022-11-18T09:25:23;38.77;;;23.20;;
18677;SDS011;9469;51.114;13.914;2022-11-18T09:30:31;37.57;;;23.07;;
18677;SDS011;9469;51.114;13.914;2022-11-18T09:35:40;41.97;;;23.90;;
18677;SDS011;9469;51.114;13.914;2022-11-18T09:40:48;40.63;;;23.97;;
18677;SDS011;9469;51.114;13.914;2022-11-18T09:46:07;36.67;;;21.73;;
18677;SDS011;9469;51.114;13.914;2022-11-18T09:51:27;39.37;;;22.50;;
18677;SDS011;9469;51.114;13.914;2022-11-18T09:56:39;38.17;;;22.43;;
18677;SDS011;9469;51.114;13.914;2022-11-18T10:01:52;36.67;;;21.80;;
18677;SDS011;9469;51.114;13.914;2022-11-18T10:07:00;29.73;;;18.63;;
18677;SDS011;9469;51.114;13.914;2022-11-18T10:12:18;30.07;;;18.20;;
18677;SDS011;9469;51.114;13.914;2022-11-18T10:17:34;32.63;;;19.00;;
18677;SDS011;9469;51.114;13.914;2022-11-18T10:22:53;33.97;;;20.60;;
18677;SDS011;9469;51.114;13.914;2022-11-18T10:28:11;31.93;;;19.67;;
18677;SDS011;9469;51.114;13.914;2022-11-18T10:33:27;26.27;;;17.20;;
18677;SDS011;9469;51.114;13.914;2022-11-18T10:38:34;28.20;;;17.70;;
18677;SDS011;9469;51.114;13.914;2022-11-18T10:43:49;25.63;;;17.37;;
18677;SDS011;9469;51.114;13.914;2022-11-18T10:49:10;31.60;;;19.10;;
18677;SDS011;9469;51.114;13.914;2022-11-18T10:54:18;33.83;;;19.47;;
18677;SDS011;9469;51.114;13.914;2022-11-18T10:59:27;30.90;;;21.37;;
18677;SDS011;9469;51.114;13.914;2022-11-18T11:04:37;35.10;;;21.13;;
18677;SDS011;9469;51.114;13.914;2022-11-18T11:09:44;35.07;;;23.27;;
18677;SDS011;9469;51.114;13.914;2022-11-18T11:15:04;36.07;;;22.33;;
18677;SDS011;9469;51.114;13.914;2022-11-18T11:20:18;36.03;;;22.07;;
18677;SDS011;9469;51.114;13.914;2022-11-18T11:25:26;40.17;;;24.37;;
18677;SDS011;9469;51.114;13.914;2022-11-18T11:31:09;37.40;;;23.37;;
18677;SDS011;9469;51.114;13.914;2022-11-18T11:36:30;37.37;;;24.53;;
18677;SDS011;9469;51.114;13.914;2022-11-18T11:41:44;39.30;;;24.63;;
18677;SDS011;9469;51.114;13.914;2022-11-18T11:47:06;37.80;;;23.73;;
18677;SDS011;9469;51.114;13.914;2022-11-18T11:52:46;39.00;;;23.70;;
18677;SDS011;9469;51.114;13.914;2022-11-18T11:58:13;39.30;;;24.40;;
18677;SDS011;9469;51.114;13.914;2022-11-18T12:03:46;34.97;;;23.07;;
18677;SDS011;9469;51.114;13.914;2022-11-18T12:09:01;39.73;;;23.23;;
18677;SDS011;9469;51.114;13.914;2022-11-18T12:14:16;38.93;;;24.50;;
18677;SDS011;9469;51.114;13.914;2022-11-18T12:19:36;37.23;;;25.10;;
18677;SDS011;9469;51.114;13.914;2022-11-18T12:24:45;38.07;;;24.17;;
18677;SDS011;9469;51.114;13.914;2022-11-18T12:29:53;40.70;;;25.57;;
18677;SDS011;9469;51.114;13.914;2022-11-18T12:35:03;46.73;;;27.60;;
18677;SDS011;9469;51.114;13.914;2022-11-18T12:40:35;52.33;;;30.57;;
18677;SDS011;9469;51.114;13.914;2022-11-18T12:45:55;48.83;;;29.53;;
18677;SDS011;9469;51.114;13.914;2022-11-18T12:51:01;58.17;;;32.97;;
18677;SDS011;9469;51.114;13.914;2022-11-18T12:56:22;51.27;;;28.80;;
18677;SDS011;9469;51.114;13.914;2022-11-18T13:01:29;45.53;;;27.80;;
18677;SDS011;9469;51.114;13.914;2022-11-18T13:06:36;41.37;;;24.50;;
18677;SDS011;9469;51.114;13.914;2022-11-18T13:11:49;37.77;;;23.80;;
18677;SDS011;9469;51.114;13.914;2022-11-18T13:16:58;40.07;;;25.97;;
18677;SDS011;9469;51.114;13.914;2022-11-18T13:22:23;44.50;;;26.63;;
18677;SDS011;9469;51.114;13.914;2022-11-18T13:27:45;42.13;;;26.07;;
18677;SDS011;9469;51.114;13.914;2022-11-18T13:32:57;39.87;;;26.40;;
18677;SDS011;9469;51.114;13.914;2022-11-18T13:38:03;42.87;;;28.27;;
18677;SDS011;9469;51.114;13.914;2022-11-18T13:43:20;35.27;;;24.70;;
18677;SDS011;9469;51.114;13.914;2022-11-18T13:48:30;39.07;;;24.10;;
18677;SDS011;9469;51.114;13.914;2022-11-18T13:53:40;39.03;;;25.70;;
18677;SDS011;9469;51.114;13.914;2022-11-18T13:58:53;40.53;;;25.03;;
18677;SDS011;9469;51.114;13.914;2022-11-18T14:04:19;37.00;;;24.40;;
18677;SDS011;9469;51.114;13.914;2022-11-18T14:09:29;39.30;;;26.23;;
18677;SDS011;9469;51.114;13.914;2022-11-18T14:14:38;39.77;;;26.83;;
18677;SDS011;9469;51.114;13.914;2022-11-18T14:19:46;39.27;;;26.63;;
18677;SDS011;9469;51.114;13.914;2022-11-18T14:24:53;39.53;;;27.27;;
18677;SDS011;9469;51.114;13.914;2022-11-18T14:30:20;42.97;;;26.63;;
18677;SDS011;9469;51.114;13.914;2022-11-18T14:35:33;41.83;;;26.37;;
18677;SDS011;9469;51.114;13.914;2022-11-18T14:40:41;36.40;;;23.70;;
18677;SDS011;9469;51.114;13.914;2022-11-18T14:45:49;38.33;;;26.03;;
18677;SDS011;9469;51.114;13.914;2022-11-18T14:51:00;38.80;;;24.63;;
18677;SDS011;9469;51.114;13.914;2022-11-18T14:56:10;38.80;;;25.83;;
18677;SDS011;9469;51.114;13.914;2022-11-18T15:01:22;42.83;;;27.57;;
18677;SDS011;9469;51.114;13.914;2022-11-18T15:06:31;40.97;;;25.73;;
18677;SDS011;9469;51.114;13.914;2022-11-18T15:11:37;41.47;;;26.43;;
18677;SDS011;9469;51.114;13.914;2022-11-18T15:16:45;51.97;;;29.90;;
18677;SDS011;9469;51.114;13.914;2022-11-18T15:21:52;50.30;;;29.00;;
18677;SDS011;9469;51.114;13.914;2022-11-18T15:26:57;41.93;;;27.13;;
18677;SDS011;9469;51.114;13.914;2022-11-18T15:32:09;45.23;;;28.43;;
18677;SDS011;9469;51.114;13.914;2022-11-18T15:37:16;45.90;;;27.20;;
18677;SDS011;9469;51.114;13.914;2022-11-18T15:42:21;45.33;;;27.53;;
18677;SDS011;9469;51.114;13.914;2022-11-18T15:47:29;49.83;;;28.73;;
18677;SDS011;9469;51.114;13.914;2022-11-18T15:52:34;50.40;;;29.80;;
18677;SDS011;9469;51.114;13.914;2022-11-18T15:57:39;48.60;;;27.13;;
18677;SDS011;9469;51.114;13.914;2022-11-18T16:02:47;45.77;;;27.83;;
18677;SDS011;9469;51.114;13.914;2022-11-18T16:07:55;49.50;;;28.67;;
18677;SDS011;9469;51.114;13.914;2022-11-18T16:13:00;45.90;;;26.93;;
18677;SDS011;9469;51.114;13.914;2022-11-18T16:18:08;45.17;;;26.47;;
18677;SDS011;9469;51.114;13.914;2022-11-18T16:23:13;37.37;;;22.73;;
18677;SDS011;9469;51.114;13.914;2022-11-18T16:28:18;45.53;;;24.80;;
18677;SDS011;9469;51.114;13.914;2022-11-18T16:33:26;39.63;;;23.97;;
18677;SDS011;9469;51.114;13.914;2022-11-18T16:38:38;38.27;;;22.60;;
18677;SDS011;9469;51.114;13.914;2022-11-18T16:43:47;39.30;;;23.07;;
18677;SDS011;9469;51.114;13.914;2022-11-18T16:48:54;39.07;;;22.47;;
18677;SDS011;9469;51.114;13.914;2022-11-18T16:54:01;36.60;;;21.00;;
18677;SDS011;9469;51.114;13.914;2022-11-18T16:59:10;36.73;;;21.47;;
18677;SDS011;9469;51.114;13.914;2022-11-18T17:04:20;26.67;;;17.27;;
18677;SDS011;9469;51.114;13.914;2022-11-18T17:09:26;30.57;;;18.53;;
18677;SDS011;9469;51.114;13.914;2022-11-18T17:14:34;25.00;;;17.67;;
18677;SDS011;9469;51.114;13.914;2022-11-18T17:19:43;24.73;;;15.70;;
18677;SDS011;9469;51.114;13.914;2022-11-18T17:24:52;23.43;;;14.60;;
18677;SDS011;9469;51.114;13.914;2022-11-18T17:30:04;29.00;;;15.33;;
18677;SDS011;9469;51.114;13.914;2022-11-18T17:35:13;21.10;;;13.63;;
18677;SDS011;9469;51.114;13.914;2022-11-18T17:40:21;21.00;;;13.47;;
18677;SDS011;9469;51.114;13.914;2022-11-18T17:45:26;21.10;;;14.10;;
18677;SDS011;9469;51.114;13.914;2022-11-18T17:50:34;17.50;;;12.43;;
18677;SDS011;9469;51.114;13.914;2022-11-18T17:55:39;16.83;;;11.10;;
18677;SDS011;9469;51.114;13.914;2022-11-18T18:00:44;15.67;;;9.87;;
18677;SDS011;9469;51.114;13.914;2022-11-18T18:05:52;15.37;;;10.83;;
18677;SDS011;9469;51.114;13.914;2022-11-18T18:11:05;14.70;;;10.20;;
18677;SDS011;9469;51.114;13.914;2022-11-18T18:16:15;14.43;;;10.53;;
18677;SDS011;9469;51.114;13.914;2022-11-18T18:21:24;10.30;;;8.40;;
18677;SDS011;9469;51.114;13.914;2022-11-18T18:26:29;11.30;;;8.87;;
18677;SDS011;9469;51.114;13.914;2022-11-18T18:31:35;11.83;;;8.87;;
18677;SDS011;9469;51.114;13.914;2022-11-18T18:36:45;12.97;;;8.50;;
18677;SDS011;9469;51.114;13.914;2022-11-18T18:41:50;10.47;;;7.63;;
18677;SDS011;9469;51.114;13.914;2022-11-18T18:46:55;9.43;;;7.67;;
18677;SDS011;9469;51.114;13.914;2022-11-18T18:52:03;10.70;;;7.53;;
18677;SDS011;9469;51.114;13.914;2022-11-18T18:57:13;13.17;;;8.37;;
18677;SDS011;9469;51.114;13.914;2022-11-18T19:02:18;9.80;;;8.03;;
18677;SDS011;9469;51.114;13.914;2022-11-18T19:07:25;10.00;;;8.47;;
18677;SDS011;9469;51.114;13.914;2022-11-18T19:12:32;10.20;;;7.80;;
18677;SDS011;9469;51.114;13.914;2022-11-18T19:17:52;11.47;;;7.70;;
18677;SDS011;9469;51.114;13.914;2022-11-18T19:23:00;9.47;;;8.07;;
18677;SDS011;9469;51.114;13.914;2022-11-18T19:28:11;11.70;;;8.67;;
18677;SDS011;9469;51.114;13.914;2022-11-18T19:33:16;14.30;;;8.93;;
18677;SDS011;9469;51.114;13.914;2022-11-18T19:38:24;11.03;;;8.33;;
18677;SDS011;9469;51.114;13.914;2022-11-18T19:43:29;11.43;;;8.50;;
18677;SDS011;9469;51.114;13.914;2022-11-18T19:48:34;8.53;;;7.53;;
18677;SDS011;9469;51.114;13.914;2022-11-18T19:53:42;9.27;;;7.70;;
18677;SDS011;9469;51.114;13.914;2022-11-18T19:58:47;13.17;;;8.57;;
18677;SDS011;9469;51.114;13.914;2022-11-18T20:03:56;10.27;;;8.10;;
18677;SDS011;9469;51.114;13.914;2022-11-18T20:09:05;10.57;;;8.20;;
18677;SDS011;9469;51.114;13.914;2022-11-18T20:14:20;10.60;;;8.20;;
18677;SDS011;9469;51.114;13.914;2022-11-18T20:19:26;10.37;;;8.53;;
18677;SDS011;9469;51.114;13.914;2022-11-18T20:24:34;12.67;;;9.37;;
18677;SDS011;9469;51.114;13.914;2022-11-18T20:29:39;10.77;;;8.10;;
18677;SDS011;9469;51.114;13.914;2022-11-18T20:34:46;10.13;;;8.73;;
18677;SDS011;9469;51.114;13.914;2022-11-18T20:39:54;11.73;;;9.23;;
18677;SDS011;9469;51.114;13.914;2022-11-18T20:44:59;12.60;;;8.97;;
18677;SDS011;9469;51.114;13.914;2022-11-18T20:50:05;13.20;;;8.33;;
18677;SDS011;9469;51.114;13.914;2022-11-18T20:55:13;10.80;;;8.80;;
18677;SDS011;9469;51.114;13.914;2022-11-18T21:00:19;14.07;;;8.53;;
18677;SDS011;9469;51.114;13.914;2022-11-18T21:05:24;11.33;;;7.93;;
18677;SDS011;9469;51.114;13.914;2022-11-18T21:10:34;13.70;;;8.50;;
18677;SDS011;9469;51.114;13.914;2022-11-18T21:15:40;14.07;;;9.40;;
18677;SDS011;9469;51.114;13.914;2022-11-18T21:20:48;13.17;;;8.80;;
18677;SDS011;9469;51.114;13.914;2022-11-18T21:26:08;11.07;;;8.20;;
18677;SDS011;9469;51.114;13.914;2022-11-18T21:31:16;13.03;;;9.63;;
18677;SDS011;9469;51.114;13.914;2022-11-18T21:36:24;11.03;;;9.33;;
18677;SDS011;9469;51.114;13.914;2022-11-18T21:41:33;13.40;;;9.20;;
18677;SDS011;9469;51.114;13.914;2022-11-18T21:46:39;15.53;;;9.73;;
18677;SDS011;9469;51.114;13.914;2022-11-18T21:51:47;11.40;;;9.43;;
18677;SDS011;9469;51.114;13.914;2022-11-18T21:56:55;11.80;;;9.17;;
18677;SDS011;9469;51.114;13.914;2022-11-18T22:02:00;14.87;;;9.80;;
18677;SDS011;9469;51.114;13.914;2022-11-18T22:07:05;14.80;;;9.57;;
18677;SDS011;9469;51.114;13.914;2022-11-18T22:12:13;15.73;;;10.00;;
18677;SDS011;9469;51.114;13.914;2022-11-18T22:17:18;12.27;;;9.87;;
18677;SDS011;9469;51.114;13.914;2022-11-18T22:22:23;15.27;;;10.77;;
18677;SDS011;9469;51.114;13.914;2022-11-18T22:27:30;14.07;;;9.87;;
18677;SDS011;9469;51.114;13.914;2022-11-18T22:32:36;13.67;;;9.20;;
18677;SDS011;9469;51.114;13.914;2022-11-18T22:37:43;15.60;;;11.00;;
18677;SDS011;9469;51.114;13.914;2022-11-18T22:42:51;13.60;;;10.53;;
18677;SDS011;9469;51.114;13.914;2022-11-18T22:47:58;12.50;;;9.57;;
18677;SDS011;9469;51.114;13.914;2022-11-18T22:53:03;13.90;;;10.27;;
18677;SDS011;9469;51.114;13.914;2022-11-18T22:58:11;13.87;;;9.50;;
18677;SDS011;9469;51.114;13.914;2022-11-18T23:03:16;14.10;;;9.47;;
18677;SDS011;9469;51.114;13.914;2022-11-18T23:08:21;14.73;;;10.87;;
18677;SDS011;9469;51.114;13.914;2022-11-18T23:13:30;14.80;;;9.90;;
18677;SDS011;9469;51.114;13.914;2022-11-18T23:18:48;15.30;;;10.33;;
18677;SDS011;9469;51.114;13.914;2022-11-18T23:23:53;16.53;;;10.20;;
18677;SDS011;9469;51.114;13.914;2022-11-18T23:29:01;14.40;;;10.97;;
18677;SDS011;9469;51.114;13.914;2022-11-18T23:34:06;14.87;;;11.33;;
18677;SDS011;9469;51.114;13.914;2022-11-18T23:39:11;14.13;;;10.80;;
18677;SDS011;9469;51.114;13.914;2022-11-18T23:44:19;13.87;;;10.40;;
18677;SDS011;9469;51.114;13.914;2022-11-18T23:49:45;13.80;;;10.43;;
18677;SDS011;9469;51.114;13.914;2022-11-18T23:54:50;14.97;;;10.00;;
18677;SDS011;9469;51.114;13.914;2022-11-18T23:59:59;14.27;;;10.67;;
